Time;durP1;ratioP1;P1;durP2;ratioP2;P2;SDS_P1;SDS_P2;PMS_P1;PMS_P2;Temp;Humidity;BMP_temperature;BMP_pressure;BME280_temperature;BME280_humidity;BME280_pressure;Samples;Min_cycle;Max_cycle;Signal;HPM_P1;HPM_P2
2021/10/10 00:00:25;;;;;;;20.35;15.82;;;13.00;99.90;;;;;;6159290;23;20052;-95
2021/10/10 00:02:50;;;;;;;23.65;17.08;;;13.00;99.90;;;;;;6159002;23;20051;-93
2021/10/10 00:05:16;;;;;;;20.83;16.45;;;13.00;99.90;;;;;;6159301;23;20058;-94
2021/10/10 00:07:42;;;;;;;19.80;15.23;;;13.00;99.90;;;;;;6184823;23;19997;-93
2021/10/10 00:10:13;;;;;;;22.35;15.13;;;13.00;99.90;;;;;;6158689;23;20016;-94
2021/10/10 00:12:39;;;;;;;21.75;15.50;;;13.00;99.90;;;;;;6159491;23;20362;-93
2021/10/10 00:15:07;;;;;;;22.35;15.63;;;13.00;99.90;;;;;;6158814;23;20076;-92
2021/10/10 00:17:33;;;;;;;20.17;15.98;;;12.90;99.90;;;;;;6159208;23;20001;-92
2021/10/10 00:19:59;;;;;;;22.00;16.75;;;12.90;99.90;;;;;;6158653;23;20063;-93
2021/10/10 00:22:25;;;;;;;23.23;17.13;;;12.90;99.90;;;;;;6158567;23;20088;-93
2021/10/10 00:24:51;;;;;;;22.05;16.02;;;12.80;99.90;;;;;;6158787;23;20056;-92
2021/10/10 00:27:17;;;;;;;23.83;17.27;;;12.80;99.90;;;;;;6158546;23;20189;-92
2021/10/10 00:29:43;;;;;;;23.25;17.20;;;12.80;99.90;;;;;;6159017;23;20009;-93
2021/10/10 00:32:09;;;;;;;21.60;17.00;;;12.70;99.90;;;;;;6158319;23;20562;-91
2021/10/10 00:34:34;;;;;;;23.30;16.33;;;12.70;99.90;;;;;;6158689;23;20016;-93
2021/10/10 00:37:00;;;;;;;21.00;15.95;;;12.60;99.90;;;;;;6186244;23;20422;-94
2021/10/10 00:39:26;;;;;;;23.52;16.35;;;12.60;99.90;;;;;;6162223;23;20009;-93
2021/10/10 00:41:51;;;;;;;23.25;16.98;;;12.60;99.90;;;;;;6162255;23;20004;-93
2021/10/10 00:44:17;;;;;;;24.60;16.77;;;12.60;99.90;;;;;;6161963;23;20029;-92
2021/10/10 00:46:43;;;;;;;23.02;17.15;;;12.50;99.90;;;;;;6162100;23;19997;-93
2021/10/10 00:49:09;;;;;;;24.10;17.95;;;12.50;99.90;;;;;;6161832;23;20346;-92
2021/10/10 00:51:38;;;;;;;24.65;17.23;;;12.50;99.90;;;;;;6162347;23;20025;-92
2021/10/10 00:54:09;;;;;;;26.65;17.95;;;12.50;99.90;;;;;;6162223;23;20015;-92
2021/10/10 00:56:36;;;;;;;25.75;18.00;;;12.40;99.90;;;;;;6162118;23;20016;-92
2021/10/10 00:59:05;;;;;;;24.20;17.45;;;12.30;99.90;;;;;;6162305;23;20005;-93
2021/10/10 01:01:31;;;;;;;29.13;17.95;;;12.30;99.90;;;;;;6161784;23;20005;-93
2021/10/10 01:03:57;;;;;;;23.30;18.25;;;12.40;99.90;;;;;;6162184;23;20135;-93
2021/10/10 01:06:23;;;;;;;28.25;19.08;;;12.30;99.90;;;;;;6162058;23;20008;-92
2021/10/10 01:08:49;;;;;;;24.83;18.23;;;12.30;99.90;;;;;;6162105;23;20005;-94
2021/10/10 01:11:17;;;;;;;24.88;17.85;;;12.30;99.90;;;;;;6161909;23;20048;-94
2021/10/10 01:13:44;;;;;;;24.45;18.05;;;12.30;99.90;;;;;;6162176;23;20012;-92
2021/10/10 01:16:09;;;;;;;25.20;18.17;;;12.20;99.90;;;;;;6162421;23;20012;-92
2021/10/10 01:18:35;;;;;;;25.52;17.83;;;12.20;99.90;;;;;;6162075;23;20036;-94
2021/10/10 01:21:01;;;;;;;24.17;17.75;;;12.20;99.90;;;;;;6162195;23;20012;-95
2021/10/10 01:23:26;;;;;;;29.10;19.60;;;12.10;99.90;;;;;;6162046;23;20008;-91
2021/10/10 01:25:53;;;;;;;24.52;18.40;;;12.20;99.90;;;;;;6162238;23;20016;-93
2021/10/10 01:28:19;;;;;;;25.35;18.33;;;12.10;99.90;;;;;;6162112;23;20104;-91
2021/10/10 01:30:44;;;;;;;27.27;18.60;;;12.10;99.90;;;;;;6161993;23;20008;-93
2021/10/10 01:33:12;;;;;;;26.63;19.08;;;12.10;99.90;;;;;;6162121;23;20073;-96
2021/10/10 01:35:39;;;;;;;26.92;18.88;;;12.10;99.90;;;;;;6161516;23;20621;-93
2021/10/10 01:38:06;;;;;;;26.00;18.40;;;12.10;99.90;;;;;;6162176;23;20454;-94
2021/10/10 01:40:34;;;;;;;25.60;19.70;;;12.10;99.90;;;;;;6162071;23;20504;-94
2021/10/10 01:43:04;;;;;;;26.02;19.13;;;12.00;99.90;;;;;;6161837;23;20008;-95
2021/10/10 01:45:30;;;;;;;26.27;19.20;;;12.00;99.90;;;;;;6162681;23;20009;-93
2021/10/10 01:47:55;;;;;;;28.27;19.83;;;12.00;99.90;;;;;;6161724;23;20012;-96
2021/10/10 01:50:21;;;;;;;27.02;19.83;;;11.90;99.90;;;;;;6159961;23;20009;-93
2021/10/10 01:52:47;;;;;;;30.13;18.63;;;11.90;99.90;;;;;;6160687;23;20350;-95
2021/10/10 01:55:13;;;;;;;24.77;18.60;;;11.90;99.90;;;;;;6160035;23;20024;-93
2021/10/10 01:57:39;;;;;;;26.38;19.50;;;11.90;99.90;;;;;;6160525;23;20001;-95
2021/10/10 02:00:07;;;;;;;27.55;18.40;;;11.80;99.90;;;;;;6160267;23;20009;-94
2021/10/10 02:02:33;;;;;;;28.20;20.30;;;11.80;99.90;;;;;;6160539;23;20005;-93
2021/10/10 02:04:59;;;;;;;26.25;18.92;;;11.80;99.90;;;;;;6160402;23;20477;-95
2021/10/10 02:07:24;;;;;;;26.90;19.40;;;11.80;99.90;;;;;;6160305;23;20008;-93
2021/10/10 02:09:50;;;;;;;27.40;19.42;;;11.70;99.90;;;;;;6161366;23;20382;-94
2021/10/10 02:12:16;;;;;;;27.70;19.98;;;11.80;99.90;;;;;;6160182;23;20005;-94
2021/10/10 02:14:41;;;;;;;27.88;20.13;;;11.70;99.90;;;;;;6159890;23;20442;-93
2021/10/10 02:17:07;;;;;;;27.63;20.38;;;11.70;99.90;;;;;;6160097;23;20092;-94
2021/10/10 02:19:33;;;;;;;26.63;19.30;;;11.70;99.90;;;;;;6160814;23;20334;-93
2021/10/10 02:22:00;;;;;;;28.45;20.02;;;11.70;99.90;;;;;;6160483;23;20004;-94
2021/10/10 02:24:26;;;;;;;26.60;19.50;;;11.70;99.90;;;;;;6160164;23;20005;-95
2021/10/10 02:26:52;;;;;;;27.90;19.80;;;11.70;99.90;;;;;;6160239;23;20442;-93
2021/10/10 02:29:18;;;;;;;28.27;19.90;;;11.60;99.90;;;;;;6160310;23;20005;-95
2021/10/10 02:31:44;;;;;;;28.15;20.92;;;11.60;99.90;;;;;;6160372;23;20015;-96
2021/10/10 02:34:12;;;;;;;29.27;22.30;;;11.60;99.90;;;;;;6160381;23;20049;-94
2021/10/10 02:36:38;;;;;;;30.33;21.00;;;11.60;99.90;;;;;;6160275;23;20013;-94
2021/10/10 02:39:05;;;;;;;29.50;21.10;;;11.60;99.90;;;;;;6160032;23;20369;-93
2021/10/10 02:41:30;;;;;;;30.23;21.40;;;11.60;99.90;;;;;;6160435;23;20005;-94
2021/10/10 02:43:56;;;;;;;25.05;19.05;;;11.60;99.90;;;;;;6159988;23;20574;-94
2021/10/10 02:46:22;;;;;;;26.90;19.38;;;11.60;99.90;;;;;;6160046;23;20449;-94
2021/10/10 02:48:48;;;;;;;28.55;20.10;;;11.60;99.90;;;;;;6159870;23;20524;-93
2021/10/10 02:51:14;;;;;;;30.92;20.30;;;11.50;99.90;;;;;;6160161;23;20001;-94
2021/10/10 02:53:39;;;;;;;27.52;19.75;;;11.50;99.90;;;;;;6160141;23;20009;-96
2021/10/10 02:56:05;;;;;;;29.67;19.98;;;11.50;99.90;;;;;;6159563;23;20067;-93
2021/10/10 02:58:31;;;;;;;30.02;20.50;;;11.50;99.90;;;;;;6159596;23;20452;-96
2021/10/10 03:00:57;;;;;;;28.88;20.52;;;11.60;99.90;;;;;;6184812;23;20005;-92
2021/10/10 03:03:23;;;;;;;30.08;20.35;;;11.50;99.90;;;;;;6159488;23;20001;-91
2021/10/10 03:05:48;;;;;;;29.15;20.83;;;11.50;99.90;;;;;;6159794;23;20005;-93
2021/10/10 03:08:14;;;;;;;28.90;21.63;;;11.50;99.90;;;;;;6159477;23;20009;-92
2021/10/10 03:10:40;;;;;;;32.67;21.70;;;11.50;99.90;;;;;;6159082;23;20016;-92
2021/10/10 03:13:07;;;;;;;28.25;21.10;;;11.40;99.90;;;;;;6159584;23;20005;-95
2021/10/10 03:15:33;;;;;;;28.63;20.98;;;11.40;99.90;;;;;;6159279;23;20017;-93
2021/10/10 03:17:59;;;;;;;27.70;21.63;;;11.40;99.90;;;;;;6159788;23;20457;-92
2021/10/10 03:20:25;;;;;;;28.90;20.45;;;11.50;99.90;;;;;;6159322;23;20052;-92
2021/10/10 03:22:50;;;;;;;31.10;20.88;;;11.50;99.90;;;;;;6159643;23;20343;-96
2021/10/10 03:25:16;;;;;;;29.90;22.05;;;11.50;99.90;;;;;;6159632;23;20430;-92
2021/10/10 03:27:42;;;;;;;34.90;21.77;;;11.50;99.90;;;;;;6159674;23;20006;-93
2021/10/10 03:30:08;;;;;;;30.98;22.77;;;11.40;99.90;;;;;;6159529;23;20382;-93
2021/10/10 03:32:34;;;;;;;31.10;23.15;;;11.40;99.90;;;;;;6159366;23;20490;-93
2021/10/10 03:35:00;;;;;;;33.38;22.60;;;11.40;99.90;;;;;;6159397;23;20088;-92
2021/10/10 03:37:26;;;;;;;35.45;22.45;;;11.30;99.90;;;;;;6158847;23;20093;-95
2021/10/10 03:39:52;;;;;;;33.40;22.73;;;11.20;99.90;;;;;;6159218;23;20015;-93
2021/10/10 03:42:17;;;;;;;32.55;22.85;;;11.30;99.90;;;;;;6159197;23;20051;-92
2021/10/10 03:44:43;;;;;;;34.00;22.70;;;11.30;99.90;;;;;;6159353;23;20009;-94
2021/10/10 03:47:09;;;;;;;34.53;24.25;;;11.20;99.90;;;;;;6158986;23;20358;-92
2021/10/10 03:49:36;;;;;;;31.33;21.88;;;11.20;99.90;;;;;;6158798;23;20071;-93
2021/10/10 03:52:02;;;;;;;29.80;21.30;;;11.20;99.90;;;;;;6158790;23;20009;-93
2021/10/10 03:56:54;;;;;;;34.55;22.48;;;11.20;99.90;;;;;;6185406;23;20005;-94
2021/10/10 03:59:24;;;;;;;32.45;22.65;;;11.10;99.90;;;;;;6158749;23;20009;-95
2021/10/10 04:01:50;;;;;;;35.97;24.05;;;11.10;99.90;;;;;;6159167;23;20043;-92
2021/10/10 04:04:17;;;;;;;30.58;22.77;;;11.10;99.90;;;;;;6159239;23;20084;-94
2021/10/10 04:06:43;;;;;;;33.17;22.63;;;11.10;99.90;;;;;;6159149;23;20005;-94
2021/10/10 04:09:08;;;;;;;30.08;22.02;;;11.10;99.90;;;;;;6159174;23;20060;-93
2021/10/10 04:11:34;;;;;;;38.47;23.45;;;11.10;99.90;;;;;;6158594;23;20016;-96
2021/10/10 04:14:00;;;;;;;36.92;23.73;;;11.00;99.90;;;;;;6158680;23;20008;-93
2021/10/10 04:16:25;;;;;;;32.97;23.40;;;11.10;99.90;;;;;;6159182;23;20013;-93
2021/10/10 04:18:51;;;;;;;33.85;23.15;;;11.10;99.90;;;;;;6158818;23;20082;-92
2021/10/10 04:21:17;;;;;;;34.63;23.63;;;11.00;99.90;;;;;;6159069;23;20005;-95
2021/10/10 04:23:43;;;;;;;33.38;22.50;;;11.10;99.90;;;;;;6158409;23;20001;-93
2021/10/10 04:26:08;;;;;;;33.83;23.27;;;11.10;99.90;;;;;;6159517;23;20012;-93
2021/10/10 04:28:34;;;;;;;32.28;24.02;;;11.10;99.90;;;;;;6158834;23;20444;-93
2021/10/10 04:31:00;;;;;;;31.65;23.73;;;11.10;99.90;;;;;;6158801;23;20450;-93
2021/10/10 04:33:25;;;;;;;36.67;25.42;;;11.10;99.90;;;;;;6158711;23;20031;-92
2021/10/10 04:35:51;;;;;;;34.15;24.20;;;11.10;99.90;;;;;;6158874;23;20017;-93
2021/10/10 04:38:17;;;;;;;34.13;23.40;;;11.10;99.90;;;;;;6159104;23;20055;-93
2021/10/10 04:40:43;;;;;;;34.58;23.67;;;11.10;99.90;;;;;;6158933;23;20088;-93
2021/10/10 04:43:09;;;;;;;38.33;25.05;;;11.10;99.90;;;;;;6159118;23;20009;-94
2021/10/10 04:45:35;;;;;;;35.53;23.35;;;11.00;99.90;;;;;;6158933;23;20005;-93
2021/10/10 04:48:02;;;;;;;34.00;23.70;;;11.00;99.90;;;;;;6158636;23;20461;-93
2021/10/10 04:50:28;;;;;;;36.53;24.08;;;11.10;99.90;;;;;;6159176;23;20009;-93
2021/10/10 04:52:54;;;;;;;34.22;24.63;;;11.00;99.90;;;;;;6158909;23;20009;-94
2021/10/10 04:55:19;;;;;;;33.42;23.95;;;11.00;99.90;;;;;;6158627;23;20013;-94
2021/10/10 04:57:45;;;;;;;39.20;25.17;;;11.00;99.90;;;;;;6158981;23;20001;-93
2021/10/10 05:00:12;;;;;;;33.33;23.80;;;10.90;99.90;;;;;;6159254;23;20009;-93
2021/10/10 05:02:37;;;;;;;35.33;24.02;;;10.90;99.90;;;;;;6158607;23;20005;-93
2021/10/10 05:05:03;;;;;;;40.65;26.08;;;10.80;99.90;;;;;;6158841;23;20271;-94
2021/10/10 05:07:29;;;;;;;35.17;25.33;;;10.80;99.90;;;;;;6158906;23;20379;-96
2021/10/10 05:09:55;;;;;;;34.10;24.45;;;10.80;99.90;;;;;;6159242;23;20011;-94
2021/10/10 05:12:21;;;;;;;35.45;24.27;;;10.80;99.90;;;;;;6158750;23;20028;-94
2021/10/10 05:14:46;;;;;;;36.97;24.10;;;10.80;99.90;;;;;;6158651;23;20465;-94
2021/10/10 05:17:13;;;;;;;31.02;23.38;;;10.80;99.90;;;;;;6159273;23;20001;-96
2021/10/10 05:19:39;;;;;;;35.90;25.65;;;10.80;99.90;;;;;;6158719;23;20009;-93
2021/10/10 05:22:05;;;;;;;35.20;24.23;;;10.80;99.90;;;;;;6184843;23;20446;-93
2021/10/10 05:24:31;;;;;;;35.10;23.95;;;10.70;99.90;;;;;;6159513;23;20449;-93
2021/10/10 05:26:59;;;;;;;35.55;24.13;;;10.70;99.90;;;;;;6160330;23;20039;-93
2021/10/10 05:29:24;;;;;;;31.90;23.10;;;10.80;99.90;;;;;;6160671;23;20036;-91
2021/10/10 05:31:50;;;;;;;32.22;23.35;;;10.80;99.90;;;;;;6160364;23;20001;-93
2021/10/10 05:34:16;;;;;;;37.28;25.35;;;10.70;99.90;;;;;;6160398;23;20049;-93
2021/10/10 05:36:41;;;;;;;35.22;24.45;;;10.70;99.90;;;;;;6160239;23;20324;-92
2021/10/10 05:39:07;;;;;;;34.95;24.92;;;10.70;99.90;;;;;;6158420;23;20005;-85
2021/10/10 05:41:33;;;;;;;38.33;23.27;;;10.70;99.90;;;;;;6183149;23;20473;-85
2021/10/10 05:44:00;;;;;;;36.55;23.80;;;10.70;99.90;;;;;;6183096;23;19997;-86
2021/10/10 05:46:25;;;;;;;35.72;23.23;;;10.70;99.90;;;;;;6156619;23;20009;-86
2021/10/10 05:48:51;;;;;;;38.08;25.08;;;10.70;99.90;;;;;;6182959;23;20520;-86
2021/10/10 05:51:17;;;;;;;35.45;24.50;;;10.60;99.90;;;;;;6156820;23;20005;-87
2021/10/10 05:53:42;;;;;;;35.67;25.20;;;10.60;99.90;;;;;;6183350;23;20080;-85
2021/10/10 05:56:08;;;;;;;37.65;25.20;;;10.60;99.90;;;;;;6156844;23;20017;-86
2021/10/10 05:58:40;;;;;;;35.85;24.13;;;10.50;99.90;;;;;;6183004;23;19997;-86
2021/10/10 06:01:06;;;;;;;40.28;24.65;;;10.50;99.90;;;;;;6182877;23;20335;-87
2021/10/10 06:03:31;;;;;;;37.35;25.00;;;10.50;99.90;;;;;;6183023;23;20024;-87
2021/10/10 06:05:57;;;;;;;34.30;23.48;;;10.50;99.90;;;;;;6183033;23;20001;-87
2021/10/10 06:08:22;;;;;;;36.35;24.33;;;10.40;99.90;;;;;;6183107;23;20028;-85
2021/10/10 06:10:48;;;;;;;35.47;24.05;;;10.50;99.90;;;;;;6183039;23;20007;-86
2021/10/10 06:13:14;;;;;;;37.20;26.45;;;10.50;99.90;;;;;;6183193;23;20076;-87
2021/10/10 06:15:40;;;;;;;34.42;25.13;;;10.50;99.90;;;;;;6156431;23;20354;-86
2021/10/10 06:18:09;;;;;;;37.00;24.48;;;10.40;99.90;;;;;;6182600;23;19998;-85
2021/10/10 06:20:36;;;;;;;42.47;25.50;;;10.40;99.90;;;;;;6156473;23;20013;-86
2021/10/10 06:23:02;;;;;;;34.42;24.80;;;10.40;99.90;;;;;;6182931;23;20021;-86
2021/10/10 06:25:28;;;;;;;34.28;24.45;;;10.40;99.90;;;;;;6156518;23;20009;-86
2021/10/10 06:27:53;;;;;;;33.85;24.17;;;10.50;99.90;;;;;;6183174;23;20469;-86
2021/10/10 06:30:19;;;;;;;36.60;24.85;;;10.40;99.90;;;;;;6182687;23;20083;-87
2021/10/10 06:32:45;;;;;;;35.70;24.67;;;10.40;99.90;;;;;;6181304;23;19997;-86
2021/10/10 06:35:10;;;;;;;37.30;24.80;;;10.40;99.90;;;;;;6181200;23;20033;-86
2021/10/10 06:37:36;;;;;;;34.85;25.10;;;10.40;99.90;;;;;;6182297;23;20044;-86
2021/10/10 06:40:03;;;;;;;37.60;24.83;;;10.50;99.90;;;;;;6182640;23;20005;-87
2021/10/10 06:42:28;;;;;;;36.10;25.15;;;10.50;99.90;;;;;;6182785;23;20063;-86
2021/10/10 06:44:54;;;;;;;34.88;24.88;;;10.50;99.90;;;;;;6185729;23;20386;-87
2021/10/10 06:47:20;;;;;;;35.92;24.67;;;10.40;99.90;;;;;;6184658;23;19997;-86
2021/10/10 06:49:46;;;;;;;35.25;24.63;;;10.50;99.90;;;;;;6183346;23;20025;-86
2021/10/10 06:52:13;;;;;;;34.25;24.05;;;10.60;99.90;;;;;;6182517;23;20063;-86
2021/10/10 06:54:40;;;;;;;33.75;23.90;;;10.70;99.90;;;;;;6181449;23;20047;-86
2021/10/10 06:57:05;;;;;;;33.60;24.45;;;10.80;99.90;;;;;;6183402;23;20575;-86
2021/10/10 06:59:31;;;;;;;36.58;25.05;;;10.80;99.90;;;;;;6182218;23;20005;-86
2021/10/10 07:01:57;;;;;;;32.72;23.95;;;10.80;99.90;;;;;;6184623;23;20083;-86
2021/10/10 07:04:22;;;;;;;33.03;23.42;;;10.90;99.90;;;;;;6191670;23;20000;-86
2021/10/10 07:06:48;;;;;;;35.47;23.95;;;10.90;99.90;;;;;;6191968;23;20023;-86
2021/10/10 07:09:14;;;;;;;36.00;24.58;;;11.00;99.90;;;;;;6182543;23;20001;-86
2021/10/10 07:11:39;;;;;;;31.42;23.08;;;11.10;99.90;;;;;;6187554;23;20388;-86
2021/10/10 07:14:06;;;;;;;31.05;22.95;;;11.20;99.90;;;;;;6183179;23;20005;-86
2021/10/10 07:16:33;;;;;;;37.65;25.13;;;11.20;99.90;;;;;;6183501;23;20009;-86
2021/10/10 07:18:59;;;;;;;35.75;24.27;;;11.20;99.90;;;;;;6185780;23;19997;-86
2021/10/10 07:26:22;;;;;;;31.20;23.45;;;11.30;99.90;;;;;;6188585;23;20000;-87
2021/10/10 07:28:48;;;;;;;34.13;23.33;;;11.30;99.90;;;;;;6192561;23;20004;-87
2021/10/10 07:31:14;;;;;;;31.83;22.77;;;11.40;99.90;;;;;;6190950;23;19997;-87
2021/10/10 07:33:40;;;;;;;30.88;23.15;;;11.50;99.90;;;;;;6164486;23;20009;-87
2021/10/10 07:36:06;;;;;;;30.92;23.00;;;11.50;99.90;;;;;;6191252;23;20092;-86
2021/10/10 07:38:33;;;;;;;31.73;22.58;;;11.60;99.90;;;;;;6165374;23;20001;-86
2021/10/10 07:41:03;;;;;;;32.15;23.77;;;11.70;99.90;;;;;;6192727;23;20009;-86
2021/10/10 07:43:31;;;;;;;33.10;23.55;;;11.70;99.90;;;;;;6188554;23;20001;-87
2021/10/10 07:46:05;;;;;;;32.55;22.65;;;11.70;99.90;;;;;;6183151;23;20001;-87
2021/10/10 07:48:32;;;;;;;33.95;23.50;;;11.80;99.90;;;;;;6181658;23;20009;-87
2021/10/10 07:50:57;;;;;;;33.83;23.70;;;11.90;99.90;;;;;;6183080;23;20427;-87
2021/10/10 07:53:23;;;;;;;30.85;22.70;;;12.00;99.90;;;;;;6155443;23;20012;-87
2021/10/10 07:55:48;;;;;;;31.05;22.98;;;12.10;99.90;;;;;;6155605;23;20330;-86
2021/10/10 07:58:14;;;;;;;32.00;22.88;;;12.20;99.90;;;;;;6183793;23;20244;-87
2021/10/10 08:00:40;;;;;;;32.10;23.55;;;12.30;99.90;;;;;;6182718;23;20005;-87
2021/10/10 08:03:05;;;;;;;29.23;22.50;;;12.30;99.90;;;;;;6180640;23;19997;-87
2021/10/10 08:05:41;;;;;;;31.27;23.25;;;12.40;99.90;;;;;;6180673;23;20016;-86
2021/10/10 08:08:08;;;;;;;29.08;21.50;;;12.50;99.90;;;;;;6180922;23;20377;-85
2021/10/10 08:10:33;;;;;;;30.50;22.00;;;12.50;99.90;;;;;;6183082;23;20426;-87
2021/10/10 08:13:00;;;;;;;31.38;21.90;;;12.50;99.90;;;;;;6184022;23;20072;-87
2021/10/10 08:15:26;;;;;;;29.88;22.10;;;12.70;99.90;;;;;;6183236;23;20342;-89
2021/10/10 08:17:51;;;;;;;32.00;22.70;;;12.80;99.90;;;;;;6183089;23;20425;-84
2021/10/10 08:20:18;;;;;;;31.20;20.42;;;12.90;99.90;;;;;;6155400;23;20016;-87
2021/10/10 08:22:46;;;;;;;31.13;21.42;;;13.00;99.90;;;;;;6185947;23;20048;-87
2021/10/10 08:25:13;;;;;;;29.73;22.45;;;13.10;99.90;;;;;;6155863;23;20011;-85
2021/10/10 08:27:39;;;;;;;30.55;21.38;;;13.20;99.90;;;;;;6182729;23;20028;-88
2021/10/10 08:30:09;;;;;;;29.08;21.30;;;13.30;99.90;;;;;;6157571;23;20357;-89
2021/10/10 08:32:36;;;;;;;33.85;21.65;;;13.40;99.90;;;;;;6192421;23;20057;-72
2021/10/10 08:35:03;;;;;;;28.75;20.30;;;13.50;99.90;;;;;;6190220;23;20221;-82
2021/10/10 08:37:29;;;;;;;28.25;20.20;;;13.60;99.90;;;;;;6184974;23;20411;-78
2021/10/10 08:39:54;;;;;;;26.77;20.08;;;13.80;99.90;;;;;;6191015;23;20048;-78
2021/10/10 08:42:32;;;;;;;30.13;20.60;;;13.70;99.90;;;;;;6192690;23;19993;-78
2021/10/10 08:45:41;;;;;;;25.77;20.40;;;13.90;99.90;;;;;;6191800;23;19997;-80
2021/10/10 08:47:51;;;;;;;29.15;21.27;;;13.90;99.90;;;;;;6180322;23;19997;-80
2021/10/10 08:50:27;;;;;;;25.48;19.60;;;14.00;99.90;;;;;;6191147;23;20325;-76
2021/10/10 08:52:58;;;;;;;25.92;19.73;;;14.10;99.90;;;;;;6192093;23;20281;-82
2021/10/10 08:55:25;;;;;;;28.20;20.52;;;14.10;99.90;;;;;;6192205;23;20032;-82
2021/10/10 08:57:52;;;;;;;28.25;20.17;;;14.20;99.90;;;;;;6192709;23;19989;-82
2021/10/10 09:00:30;;;;;;;25.02;20.23;;;14.40;99.90;;;;;;6193010;23;20202;-84
2021/10/10 09:02:56;;;;;;;28.45;18.10;;;14.50;99.90;;;;;;6193127;23;20039;-83
2021/10/10 09:05:24;;;;;;;28.85;20.40;;;14.50;99.90;;;;;;6191744;23;20275;-83
2021/10/10 09:07:50;;;;;;;25.48;18.08;;;14.60;99.90;;;;;;6193368;23;20001;-83
2021/10/10 09:10:29;;;;;;;26.02;19.85;;;14.70;99.90;;;;;;6191964;23;20004;-82
2021/10/10 09:13:11;;;;;;;27.77;18.35;;;14.80;99.90;;;;;;6192026;23;19993;-83
2021/10/10 09:15:48;;;;;;;24.73;19.73;;;14.90;99.90;;;;;;6192679;23;20001;-83
2021/10/10 09:18:14;;;;;;;22.25;17.02;;;15.00;99.90;;;;;;6194560;23;20056;-83
2021/10/10 09:20:41;;;;;;;23.67;17.45;;;15.10;99.90;;;;;;6167325;23;19997;-83
2021/10/10 09:23:09;;;;;;;23.48;17.30;;;15.20;99.90;;;;;;6194161;23;19997;-83
2021/10/10 09:25:36;;;;;;;24.55;17.83;;;15.30;99.90;;;;;;6194380;23;19992;-83
2021/10/10 09:28:21;;;;;;;24.42;17.90;;;15.40;99.90;;;;;;6193966;23;19993;-81
2021/10/10 09:30:49;;;;;;;26.23;17.27;;;15.40;99.90;;;;;;6192368;23;19993;-79
2021/10/10 09:33:15;;;;;;;22.13;16.77;;;15.40;99.90;;;;;;6188569;23;19997;-80
2021/10/10 09:35:42;;;;;;;24.17;17.88;;;15.50;99.90;;;;;;6187734;23;20009;-80
2021/10/10 09:38:15;;;;;;;19.90;16.55;;;15.50;99.90;;;;;;6193452;23;20048;-81
2021/10/10 09:40:50;;;;;;;22.38;15.80;;;15.60;99.90;;;;;;6193315;23;19993;-80
2021/10/10 09:43:15;;;;;;;23.60;16.30;;;15.60;99.90;;;;;;6193276;23;20151;-80
2021/10/10 09:45:53;;;;;;;23.48;16.75;;;15.70;99.90;;;;;;6193995;23;20381;-80
2021/10/10 09:48:33;;;;;;;20.90;15.60;;;15.80;99.90;;;;;;6190057;23;20040;-80
2021/10/10 09:50:59;;;;;;;23.17;16.05;;;15.80;99.90;;;;;;6192688;23;20004;-80
2021/10/10 09:53:33;;;;;;;20.25;15.52;;;16.00;99.90;;;;;;6190497;23;19997;-80
2021/10/10 09:56:03;;;;;;;22.10;15.75;;;16.10;99.90;;;;;;6160749;23;20354;-80
2021/10/10 09:58:38;;;;;;;24.50;15.30;;;16.10;99.90;;;;;;6184816;23;20284;-81
2021/10/10 10:01:18;;;;;;;19.65;15.18;;;16.30;99.90;;;;;;6190665;23;20056;-81
2021/10/10 10:04:13;;;;;;;19.40;14.20;;;16.30;99.90;;;;;;6188316;23;20032;-81
2021/10/10 10:06:43;;;;;;;21.90;15.02;;;16.40;99.90;;;;;;6164986;23;20015;-80
2021/10/10 10:09:11;;;;;;;18.70;13.60;;;16.50;99.90;;;;;;6187350;23;20185;-80
2021/10/10 10:11:38;;;;;;;16.88;13.57;;;16.60;99.90;;;;;;6187638;23;20028;-81
2021/10/10 10:14:09;;;;;;;17.90;13.80;;;16.70;99.90;;;;;;6187582;23;20001;-80
2021/10/10 10:16:41;;;;;;;20.10;13.82;;;16.90;99.90;;;;;;6189208;23;20253;-80
2021/10/10 10:19:11;;;;;;;18.20;13.48;;;17.00;99.90;;;;;;6187670;23;19997;-80
2021/10/10 10:21:37;;;;;;;17.73;12.65;;;17.00;99.90;;;;;;6189890;23;19993;-80
2021/10/10 10:24:06;;;;;;;17.25;12.60;;;17.10;99.90;;;;;;6167037;23;19993;-80
2021/10/10 10:26:34;;;;;;;14.98;12.63;;;17.10;99.90;;;;;;6193252;23;20012;-80
2021/10/10 10:29:32;;;;;;;16.52;12.07;;;17.20;99.90;;;;;;6192743;23;20373;-81
2021/10/10 10:31:59;;;;;;;14.27;11.43;;;17.30;99.90;;;;;;6187629;23;19993;-80
2021/10/10 10:34:27;;;;;;;14.30;11.88;;;17.50;99.90;;;;;;6192808;23;20304;-80
2021/10/10 10:36:53;;;;;;;16.75;12.05;;;17.50;99.90;;;;;;6192723;23;20008;-81
2021/10/10 10:39:44;;;;;;;16.08;11.95;;;17.50;99.90;;;;;;6164749;23;20099;-80
2021/10/10 10:42:11;;;;;;;15.27;11.55;;;17.60;99.90;;;;;;6187780;23;19997;-80
2021/10/10 10:44:38;;;;;;;14.07;10.48;;;17.70;99.90;;;;;;6191702;23;20001;-80
2021/10/10 10:47:07;;;;;;;16.05;11.68;;;17.80;99.90;;;;;;6166044;23;20020;-83
2021/10/10 10:49:51;;;;;;;15.15;10.95;;;17.90;99.90;;;;;;6182471;23;20020;-88
2021/10/10 10:52:26;;;;;;;12.18;10.20;;;18.00;99.90;;;;;;6180348;23;20005;-83
2021/10/10 10:54:54;;;;;;;13.25;10.35;;;18.00;99.90;;;;;;6181146;23;20104;-83
2021/10/10 10:57:36;;;;;;;13.05;9.90;;;18.10;99.90;;;;;;6181001;23;20366;-82
2021/10/10 11:00:05;;;;;;;13.38;9.68;;;18.20;99.90;;;;;;6180507;23;20005;-82
2021/10/10 11:03:00;;;;;;;14.27;10.85;;;18.20;99.90;;;;;;6179723;23;20001;-83
2021/10/10 11:05:40;;;;;;;;;;;18.20;99.90;;;;;;6181473;23;20008;-82
2021/10/10 11:08:17;;;;;;;12.07;9.10;;;18.40;99.90;;;;;;6180832;23;19927;-83
2021/10/10 11:11:04;;;;;;;13.38;9.65;;;18.40;99.90;;;;;;6180373;23;20008;-82
2021/10/10 11:13:35;;;;;;;12.50;9.23;;;18.50;99.90;;;;;;6154860;23;20147;-82
2021/10/10 11:16:05;;;;;;;11.55;8.38;;;18.50;99.90;;;;;;6154754;23;20017;-83
2021/10/10 11:18:32;;;;;;;11.57;8.32;;;18.60;99.90;;;;;;6154653;23;20382;-83
2021/10/10 11:21:01;;;;;;;10.98;8.70;;;18.70;99.90;;;;;;6182258;23;20001;-83
2021/10/10 11:23:28;;;;;;;13.35;8.13;;;18.90;99.90;;;;;;6182417;23;20581;-82
2021/10/10 11:25:56;;;;;;;15.25;9.13;;;18.90;99.90;;;;;;6182304;23;20001;-83
2021/10/10 11:28:58;;;;;;;14.02;9.50;;;18.90;99.90;;;;;;6182316;23;20008;-83
2021/10/10 11:31:26;;;;;;;12.30;8.38;;;19.00;99.90;;;;;;6037830;23;20492;-84
2021/10/10 11:33:56;;;;;;;13.13;8.70;;;19.10;99.90;;;;;;6160494;23;20036;-82
2021/10/10 11:36:38;;;;;;;12.38;8.50;;;19.20;99.90;;;;;;6182677;23;20009;-83
2021/10/10 11:39:08;;;;;;;9.63;7.97;;;19.20;99.90;;;;;;6182435;23;20385;-83
2021/10/10 11:41:50;;;;;;;8.95;7.38;;;19.20;99.90;;;;;;6155996;23;20080;-83
2021/10/10 11:44:19;;;;;;;8.65;7.07;;;19.10;99.90;;;;;;6155829;23;20001;-82
2021/10/10 11:46:54;;;;;;;8.90;7.55;;;19.30;99.90;;;;;;6182386;23;20001;-83
2021/10/10 11:49:44;;;;;;;9.82;7.53;;;19.50;99.90;;;;;;6155062;23;20461;-83
2021/10/10 11:55:00;;;;;;;7.65;6.68;;;19.70;99.90;;;;;;6181698;23;20021;-82
2021/10/10 11:57:27;;;;;;;9.80;6.90;;;19.80;99.90;;;;;;6181913;23;20083;-83
2021/10/10 11:59:55;;;;;;;8.43;6.78;;;19.80;99.90;;;;;;6182458;23;20102;-84
2021/10/10 12:02:21;;;;;;;11.20;8.02;;;19.80;99.90;;;;;;6182391;23;20059;-84
2021/10/10 12:04:47;;;;;;;8.90;7.35;;;19.80;99.90;;;;;;6155407;23;20009;-83
2021/10/10 12:07:13;;;;;;;9.75;7.07;;;19.90;99.90;;;;;;6182313;23;20319;-83
2021/10/10 12:09:50;;;;;;;9.60;7.47;;;20.00;99.90;;;;;;6182255;23;20066;-84
2021/10/10 12:12:18;;;;;;;8.50;6.95;;;19.90;99.90;;;;;;6181866;23;20012;-83
2021/10/10 12:14:55;;;;;;;9.18;6.85;;;20.00;99.90;;;;;;6181783;23;20005;-84
2021/10/10 12:17:43;;;;;;;10.10;7.32;;;20.10;99.90;;;;;;6182067;23;20370;-84
2021/10/10 12:20:18;;;;;;;9.65;7.10;;;20.30;99.90;;;;;;6182135;23;19997;-83
2021/10/10 12:22:55;;;;;;;8.43;6.68;;;20.30;99.90;;;;;;6182259;23;20059;-83
2021/10/10 12:25:31;;;;;;;11.93;7.00;;;20.20;99.90;;;;;;6181398;23;20008;-83
2021/10/10 12:28:11;;;;;;;8.15;7.35;;;20.20;99.90;;;;;;6182056;23;20326;-84
2021/10/10 12:30:52;;;;;;;11.23;7.47;;;20.20;99.90;;;;;;6181597;23;20001;-84
2021/10/10 12:33:21;;;;;;;9.82;7.20;;;20.20;99.90;;;;;;6181768;23;20354;-83
2021/10/10 12:36:04;;;;;;;10.40;7.82;;;20.30;99.90;;;;;;6181804;23;20241;-83
2021/10/10 12:38:42;;;;;;;11.48;7.97;;;20.40;99.50;;;;;;6182107;23;20001;-84
2021/10/10 12:41:20;;;;;;;12.75;7.88;;;20.50;99.70;;;;;;6156559;23;20015;-83
2021/10/10 12:44:05;;;;;;;7.72;6.95;;;20.70;98.90;;;;;;6178660;23;20470;-82